createdAt,value
2019-01-14T00:01:49.256Z,1.73
2019-01-14T00:04:16.515Z,2.33
2019-01-14T00:06:44.568Z,1.67
2019-01-14T00:09:12.151Z,1.67
2019-01-14T00:11:39.862Z,1.10
2019-01-14T00:14:07.416Z,1.50
2019-01-14T00:16:41.048Z,1.73
2019-01-14T00:19:08.510Z,1.57
2019-01-14T00:21:36.215Z,1.87
2019-01-14T00:24:04.323Z,1.80
2019-01-14T00:26:31.930Z,1.80
2019-01-14T00:28:59.559Z,2.00
2019-01-14T00:31:27.224Z,1.60
2019-01-14T00:33:55.291Z,1.10
2019-01-14T00:36:22.642Z,1.50
2019-01-14T00:38:50.008Z,2.63
2019-01-14T00:41:17.424Z,1.40
2019-01-14T00:43:44.719Z,1.83
2019-01-14T00:46:12.016Z,1.53
2019-01-14T00:48:39.517Z,1.30
2019-01-14T00:51:06.894Z,1.90
2019-01-14T00:53:34.634Z,2.40
2019-01-14T00:56:02.042Z,1.90
2019-01-14T00:58:29.456Z,1.90
2019-01-14T01:00:56.926Z,1.07
2019-01-14T01:03:24.279Z,2.13
2019-01-14T01:05:51.933Z,1.93
2019-01-14T01:08:19.189Z,1.67
2019-01-14T01:10:46.432Z,1.37
2019-01-14T01:13:13.968Z,1.70
2019-01-14T01:15:47.179Z,1.60
2019-01-14T01:18:14.521Z,1.90
2019-01-14T01:20:41.910Z,1.10
2019-01-14T01:23:09.229Z,0.97
2019-01-14T01:25:36.636Z,1.80
2019-01-14T01:28:03.946Z,1.40
2019-01-14T01:30:31.357Z,1.30
2019-01-14T01:32:58.703Z,1.10
2019-01-14T01:35:26.215Z,1.40
2019-01-14T01:37:53.681Z,1.73
2019-01-14T01:40:21.023Z,1.23
2019-01-14T01:42:48.339Z,0.73
2019-01-14T01:45:15.806Z,1.63
2019-01-14T01:47:43.331Z,0.77
2019-01-14T01:50:12.259Z,1.40
2019-01-14T01:52:39.521Z,1.37
2019-01-14T01:55:07.525Z,1.70
2019-01-14T01:57:34.802Z,1.30
2019-01-14T02:00:02.215Z,0.97
2019-01-14T02:02:29.547Z,1.73
2019-01-14T02:04:56.797Z,1.40
2019-01-14T02:07:24.109Z,1.33
2019-01-14T02:09:51.355Z,1.03
2019-01-14T02:12:18.805Z,1.70
2019-01-14T02:14:46.044Z,1.77
2019-01-14T02:17:13.595Z,2.63
2019-01-14T02:19:40.902Z,1.63
2019-01-14T02:22:08.162Z,1.60
2019-01-14T02:24:35.668Z,1.67
2019-01-14T02:27:02.995Z,2.37
2019-01-14T02:29:30.593Z,1.50
2019-01-14T02:31:57.837Z,1.30
2019-01-14T02:34:25.103Z,1.30
2019-01-14T02:36:52.494Z,0.80
2019-01-14T02:39:19.860Z,1.17
2019-01-14T02:41:47.222Z,0.70
2019-01-14T02:44:14.455Z,0.40
2019-01-14T02:46:41.775Z,0.50
2019-01-14T02:49:09.248Z,0.73
2019-01-14T02:51:36.549Z,0.70
2019-01-14T02:54:03.833Z,0.60
2019-01-14T02:56:31.180Z,0.20
2019-01-14T02:58:58.445Z,0.30
2019-01-14T03:01:25.976Z,0.30
2019-01-14T03:03:53.330Z,0.30
2019-01-14T03:06:20.580Z,0.30
2019-01-14T03:08:47.837Z,0.33
2019-01-14T03:11:15.468Z,0.50
2019-01-14T03:13:42.753Z,0.40
2019-01-14T03:16:10.110Z,0.30
2019-01-14T03:18:37.371Z,0.40
2019-01-14T03:21:04.808Z,0.20
2019-01-14T03:23:32.470Z,0.20
2019-01-14T03:26:00.141Z,0.50
2019-01-14T03:28:28.087Z,0.30
2019-01-14T03:30:55.749Z,0.30
2019-01-14T03:33:23.638Z,0.30
2019-01-14T03:35:51.305Z,0.43
2019-01-14T03:38:18.693Z,0.30
2019-01-14T03:40:46.069Z,0.60
2019-01-14T03:43:13.428Z,0.30
2019-01-14T03:45:40.958Z,0.60
2019-01-14T03:48:08.184Z,0.67
2019-01-14T03:50:35.431Z,0.30
2019-01-14T03:53:03.617Z,0.43
2019-01-14T03:55:31.123Z,0.30
2019-01-14T03:57:58.376Z,0.50
2019-01-14T04:00:31.769Z,0.40
2019-01-14T04:02:59.193Z,0.70
2019-01-14T04:05:26.531Z,0.60
2019-01-14T04:07:53.776Z,0.63
2019-01-14T04:10:21.187Z,0.70
2019-01-14T04:12:48.538Z,0.87
2019-01-14T04:15:17.531Z,1.00
2019-01-14T04:17:44.865Z,1.67
2019-01-14T04:20:13.759Z,0.90
2019-01-14T04:22:41.266Z,0.70
2019-01-14T04:25:08.926Z,1.90
2019-01-14T04:27:36.344Z,1.50
2019-01-14T04:30:07.384Z,0.97
2019-01-14T04:32:34.639Z,0.93
2019-01-14T04:35:02.078Z,1.03
2019-01-14T04:37:29.344Z,1.33
2019-01-14T04:39:56.682Z,1.07
2019-01-14T04:42:23.903Z,1.00
2019-01-14T04:44:51.206Z,0.93
2019-01-14T04:47:18.561Z,1.20
2019-01-14T04:49:55.040Z,0.93
2019-01-14T04:52:22.437Z,1.47
2019-01-14T04:54:49.693Z,0.83
2019-01-14T04:57:17.061Z,1.57
2019-01-14T04:59:44.325Z,1.50
2019-01-14T05:02:11.571Z,1.30
2019-01-14T05:04:39.132Z,1.20
2019-01-14T05:07:06.407Z,1.70
2019-01-14T05:09:33.835Z,1.50
2019-01-14T05:12:01.100Z,1.90
2019-01-14T05:14:40.584Z,1.67
2019-01-14T05:17:08.178Z,1.60
2019-01-14T05:19:35.439Z,2.03
2019-01-14T05:22:02.719Z,1.60
2019-01-14T05:24:30.052Z,1.63
2019-01-14T05:26:57.336Z,1.93
2019-01-14T05:29:24.737Z,1.50
2019-01-14T05:31:52.075Z,1.53
2019-01-14T05:34:19.361Z,1.40
2019-01-14T05:36:46.713Z,1.23
2019-01-14T05:39:14.232Z,2.20
2019-01-14T05:41:41.508Z,1.40
2019-01-14T05:44:08.767Z,1.87
2019-01-14T05:46:36.017Z,1.57
2019-01-14T05:49:03.379Z,1.80
2019-01-14T05:51:30.688Z,1.80
2019-01-14T05:53:58.021Z,1.80
2019-01-14T05:56:25.297Z,2.20
2019-01-14T05:58:52.661Z,2.00
2019-01-14T06:01:19.940Z,1.53
2019-01-14T06:03:47.186Z,1.60
2019-01-14T06:06:14.517Z,1.90
2019-01-14T06:08:41.878Z,2.67
2019-01-14T06:11:09.111Z,2.07
2019-01-14T06:13:36.375Z,2.17
2019-01-14T06:16:03.613Z,2.07
2019-01-14T06:18:30.909Z,2.10
2019-01-14T06:20:58.180Z,2.53
2019-01-14T06:23:25.515Z,2.63
2019-01-14T06:25:52.897Z,2.57
2019-01-14T06:28:20.223Z,2.20
2019-01-14T06:30:47.600Z,2.10
2019-01-14T06:33:15.162Z,2.60
2019-01-14T06:35:42.556Z,2.00
2019-01-14T06:38:09.809Z,2.77
2019-01-14T06:40:37.068Z,2.07
2019-01-14T06:43:04.491Z,1.97
2019-01-14T06:45:31.811Z,2.17
2019-01-14T06:48:31.171Z,5.73
2019-01-14T06:50:58.558Z,6.33
2019-01-14T06:53:25.908Z,2.27
2019-01-14T06:55:54.195Z,1.83
2019-01-14T06:58:52.254Z,2.00
2019-01-14T07:01:19.524Z,1.60
2019-01-14T07:03:46.820Z,1.80
2019-01-14T07:06:14.260Z,1.80
2019-01-14T07:08:41.679Z,1.80
2019-01-14T07:11:09.057Z,2.00
2019-01-14T07:13:37.601Z,2.10
2019-01-14T07:16:04.921Z,1.80
2019-01-14T07:18:32.175Z,2.13
2019-01-14T07:20:59.694Z,2.17
2019-01-14T07:23:29.020Z,2.63
2019-01-14T07:25:56.352Z,2.47
2019-01-14T07:28:23.691Z,1.40
2019-01-14T07:30:50.939Z,2.33
2019-01-14T07:33:21.187Z,2.13
2019-01-14T07:35:48.528Z,2.03
2019-01-14T07:38:15.811Z,2.30
2019-01-14T07:40:43.044Z,1.60
2019-01-14T07:43:10.343Z,1.00
2019-01-14T07:45:37.943Z,1.90
2019-01-14T07:48:05.207Z,1.27
2019-01-14T07:50:32.482Z,1.50
2019-01-14T07:52:59.723Z,1.50
2019-01-14T07:55:27.009Z,1.27
2019-01-14T07:57:54.244Z,1.90
2019-01-14T08:00:23.367Z,2.10
2019-01-14T08:02:50.635Z,1.67
2019-01-14T08:05:17.886Z,2.13
2019-01-14T08:07:45.275Z,1.67
2019-01-14T08:10:12.638Z,1.57
2019-01-14T08:12:39.883Z,1.27
2019-01-14T08:15:09.787Z,1.23
2019-01-14T08:17:37.091Z,1.17
2019-01-14T08:20:05.769Z,1.90
2019-01-14T08:22:33.015Z,9.80
2019-01-14T08:25:00.264Z,2.93
2019-01-14T08:27:27.535Z,0.97
2019-01-14T08:29:54.830Z,1.10
2019-01-14T08:32:22.101Z,0.97
2019-01-14T08:34:49.436Z,1.03
2019-01-14T08:37:16.759Z,0.80
2019-01-14T08:39:44.125Z,0.60
2019-01-14T08:42:12.064Z,1.00
2019-01-14T08:44:41.679Z,1.00
2019-01-14T08:47:09.707Z,0.67
2019-01-14T08:49:37.172Z,0.80
2019-01-14T08:52:04.424Z,1.30
2019-01-14T08:54:31.759Z,0.90
2019-01-14T08:56:59.429Z,1.00
2019-01-14T08:59:27.378Z,1.13
2019-01-14T09:01:54.748Z,0.90
2019-01-14T09:04:23.410Z,1.00
2019-01-14T09:06:51.184Z,1.10
2019-01-14T09:09:18.511Z,1.80
2019-01-14T09:11:45.917Z,0.87
2019-01-14T09:14:13.139Z,0.83
2019-01-14T09:16:42.076Z,1.00
2019-01-14T09:19:09.413Z,1.10
2019-01-14T09:21:36.685Z,1.20
2019-01-14T09:24:04.027Z,1.23
2019-01-14T09:26:31.304Z,0.40
2019-01-14T09:28:58.585Z,0.20
2019-01-14T09:31:25.896Z,0.50
2019-01-14T09:33:53.422Z,0.30
2019-01-14T09:36:26.497Z,0.53
2019-01-14T09:38:54.099Z,0.40
2019-01-14T09:41:21.743Z,0.40
2019-01-14T09:43:49.372Z,0.30
2019-01-14T09:46:17.009Z,0.37
2019-01-14T09:48:44.606Z,0.60
2019-01-14T09:51:12.268Z,0.70
2019-01-14T09:53:39.643Z,0.50
2019-01-14T09:56:06.875Z,0.43
2019-01-14T09:58:34.224Z,0.50
2019-01-14T10:01:01.519Z,1.10
2019-01-14T10:03:28.787Z,1.23
2019-01-14T10:05:56.122Z,0.67
2019-01-14T10:08:23.394Z,0.60
2019-01-14T10:10:50.744Z,0.70
2019-01-14T10:13:18.001Z,0.30
2019-01-14T10:15:45.458Z,0.40
2019-01-14T10:18:12.784Z,0.23
2019-01-14T10:20:40.064Z,0.20
2019-01-14T10:23:07.356Z,0.60
2019-01-14T10:25:34.792Z,0.60
2019-01-14T10:28:02.150Z,0.70
2019-01-14T10:30:29.409Z,0.80
2019-01-14T10:32:56.677Z,0.50
2019-01-14T10:35:23.957Z,0.60
2019-01-14T10:37:51.232Z,0.70
2019-01-14T10:40:18.543Z,0.60
2019-01-14T10:42:46.286Z,0.80
2019-01-14T10:45:19.733Z,0.83
2019-01-14T10:47:47.058Z,0.53
2019-01-14T10:50:17.153Z,1.10
2019-01-14T10:52:44.509Z,0.80
2019-01-14T10:55:12.713Z,0.87
2019-01-14T10:57:40.131Z,1.17
2019-01-14T11:00:11.274Z,0.87
2019-01-14T11:02:39.988Z,0.90
2019-01-14T11:05:08.826Z,0.70
2019-01-14T11:07:36.095Z,1.00
2019-01-14T11:10:04.672Z,0.60
2019-01-14T11:12:31.927Z,0.53
2019-01-14T11:15:02.968Z,0.50
2019-01-14T11:17:28.319Z,0.80
2019-01-14T11:19:56.430Z,0.40
2019-01-14T11:22:23.891Z,0.37
2019-01-14T11:24:51.550Z,0.40
2019-01-14T11:27:19.598Z,0.40
2019-01-14T11:29:53.557Z,0.70
2019-01-14T11:32:21.536Z,0.70
2019-01-14T11:34:48.839Z,0.83
2019-01-14T11:37:16.147Z,0.33
2019-01-14T11:39:43.448Z,0.40
2019-01-14T11:42:10.761Z,0.40
2019-01-14T11:44:38.030Z,0.20
2019-01-14T11:47:05.383Z,0.30
2019-01-14T11:49:32.651Z,0.30
2019-01-14T11:51:59.964Z,0.40
2019-01-14T11:54:27.358Z,0.50
2019-01-14T11:56:54.767Z,0.97
2019-01-14T11:59:22.067Z,1.57
2019-01-14T12:01:49.353Z,4.83
2019-01-14T12:04:16.581Z,3.77
2019-01-14T12:06:43.839Z,1.83
2019-01-14T12:09:12.414Z,1.77
2019-01-14T12:11:40.069Z,1.17
2019-01-14T12:14:09.287Z,0.93
2019-01-14T12:16:36.572Z,1.07
2019-01-14T12:19:04.256Z,1.40
2019-01-14T12:21:31.495Z,1.70
2019-01-14T12:23:58.744Z,1.20
2019-01-14T12:26:26.027Z,2.00
2019-01-14T12:28:53.267Z,2.83
2019-01-14T12:31:20.847Z,0.80
2019-01-14T12:33:48.163Z,1.23
2019-01-14T12:36:15.446Z,1.20
2019-01-14T12:38:42.707Z,1.40
2019-01-14T12:41:09.958Z,1.90
2019-01-14T12:43:37.224Z,0.97
2019-01-14T12:46:04.464Z,1.60
2019-01-14T12:48:31.747Z,4.87
2019-01-14T12:50:58.995Z,2.10
2019-01-14T12:53:26.276Z,0.93
2019-01-14T12:55:53.562Z,1.33
2019-01-14T12:58:23.582Z,1.30
2019-01-14T13:00:50.818Z,1.10
2019-01-14T13:03:18.070Z,0.87
2019-01-14T13:05:45.423Z,1.27
2019-01-14T13:08:12.659Z,0.80
2019-01-14T13:10:39.899Z,1.30
2019-01-14T13:13:07.166Z,1.23
2019-01-14T13:15:34.402Z,1.20
2019-01-14T13:18:05.437Z,1.17
2019-01-14T13:20:30.841Z,1.37
2019-01-14T13:22:58.063Z,1.30
2019-01-14T13:25:25.321Z,1.10
2019-01-14T13:27:52.607Z,0.90
2019-01-14T13:30:25.154Z,0.77
2019-01-14T13:32:52.399Z,0.70
2019-01-14T13:35:19.812Z,1.00
2019-01-14T13:37:47.158Z,1.63
2019-01-14T13:40:14.485Z,1.27
2019-01-14T13:42:41.759Z,1.40
2019-01-14T13:45:11.425Z,1.23
2019-01-14T13:47:38.778Z,0.80
2019-01-14T13:50:07.803Z,1.00
2019-01-14T13:52:35.058Z,0.80
2019-01-14T13:55:02.447Z,1.50
2019-01-14T13:57:29.723Z,0.87
2019-01-14T13:59:56.953Z,0.97
2019-01-14T14:02:25.033Z,0.90
2019-01-14T14:04:52.300Z,1.20
2019-01-14T14:07:19.926Z,1.20
2019-01-14T14:09:47.166Z,1.47
2019-01-14T14:12:14.429Z,1.43
2019-01-14T14:14:41.673Z,1.10
2019-01-14T14:17:09.029Z,1.07
2019-01-14T14:19:36.300Z,1.23
2019-01-14T14:22:03.546Z,0.87
2019-01-14T14:24:30.963Z,0.73
2019-01-14T14:26:58.257Z,0.93
2019-01-14T14:29:25.549Z,1.20
2019-01-14T14:31:52.967Z,0.67
2019-01-14T14:34:20.421Z,1.03
2019-01-14T14:36:47.801Z,0.80
2019-01-14T14:39:15.175Z,0.90
2019-01-14T14:41:42.476Z,1.10
2019-01-14T14:44:09.708Z,0.70
2019-01-14T14:46:36.977Z,1.53
2019-01-14T14:49:04.278Z,1.40
2019-01-14T14:51:31.552Z,1.23
2019-01-14T14:53:58.807Z,0.93
2019-01-14T14:56:26.079Z,0.97
2019-01-14T14:58:53.347Z,1.40
2019-01-14T15:01:20.583Z,0.80
2019-01-14T15:03:48.865Z,0.87
2019-01-14T15:06:16.329Z,0.90
2019-01-14T15:08:43.564Z,1.23
2019-01-14T15:11:10.830Z,0.87
2019-01-14T15:13:38.116Z,0.80
2019-01-14T15:16:05.517Z,0.90
2019-01-14T15:18:32.792Z,0.53
2019-01-14T15:21:00.039Z,0.90
2019-01-14T15:23:27.330Z,0.90
2019-01-14T15:25:54.755Z,3.07
2019-01-14T15:28:22.061Z,1.43
2019-01-14T15:30:49.313Z,1.33
2019-01-14T15:33:16.602Z,1.17
2019-01-14T15:35:43.932Z,0.83
2019-01-14T15:38:11.207Z,1.20
2019-01-14T15:40:38.684Z,1.47
2019-01-14T15:43:05.939Z,1.10
2019-01-14T15:45:33.360Z,0.87
2019-01-14T15:48:00.607Z,1.23
2019-01-14T15:50:27.865Z,1.70
2019-01-14T15:52:55.599Z,0.97
2019-01-14T15:55:24.891Z,0.83
2019-01-14T15:57:52.160Z,1.17
2019-01-14T16:00:19.427Z,1.00
2019-01-14T16:02:47.280Z,0.90
2019-01-14T16:05:14.791Z,0.87
2019-01-14T16:07:42.066Z,1.20
2019-01-14T16:10:12.704Z,1.00
2019-01-14T16:12:39.973Z,1.30
2019-01-14T16:15:07.347Z,1.20
2019-01-14T16:17:34.624Z,0.90
2019-01-14T16:20:01.904Z,0.77
2019-01-14T16:22:29.235Z,0.70
2019-01-14T16:24:56.517Z,0.60
2019-01-14T16:27:23.765Z,0.50
2019-01-14T16:29:51.267Z,0.70
2019-01-14T16:32:18.628Z,0.73
2019-01-14T16:34:45.908Z,0.77
2019-01-14T16:37:13.353Z,0.67
2019-01-14T16:39:40.625Z,0.40
2019-01-14T16:42:07.905Z,0.50
2019-01-14T16:44:35.175Z,0.53
2019-01-14T16:47:02.552Z,0.73
2019-01-14T16:49:29.810Z,0.90
2019-01-14T16:51:57.055Z,0.70
2019-01-14T16:54:24.324Z,0.50
2019-01-14T16:56:55.416Z,1.03
2019-01-14T16:59:22.787Z,0.80
2019-01-14T17:01:50.056Z,0.70
2019-01-14T17:04:17.324Z,7.90
2019-01-14T17:06:44.763Z,0.90
2019-01-14T17:09:12.031Z,0.97
2019-01-14T17:11:39.287Z,0.80
2019-01-14T17:14:06.545Z,1.03
2019-01-14T17:16:33.822Z,1.00
2019-01-14T17:19:01.133Z,0.90
2019-01-14T17:21:28.423Z,0.83
2019-01-14T17:23:55.711Z,0.60
2019-01-14T17:26:23.000Z,0.93
2019-01-14T17:28:50.261Z,0.70
2019-01-14T17:31:17.520Z,0.70
2019-01-14T17:33:44.830Z,1.07
2019-01-14T17:36:12.171Z,0.90
2019-01-14T17:38:39.435Z,1.40
2019-01-14T17:41:06.684Z,1.30
2019-01-14T17:43:33.966Z,1.40
2019-01-14T17:46:01.224Z,1.27
2019-01-14T17:48:28.517Z,2.37
2019-01-14T17:50:55.759Z,2.30
2019-01-14T17:53:23.008Z,3.37
2019-01-14T17:55:50.263Z,3.73
2019-01-14T17:58:17.514Z,3.83
2019-01-14T18:00:45.096Z,2.40
2019-01-14T18:03:12.436Z,2.33
2019-01-14T18:05:39.696Z,2.27
2019-01-14T18:08:06.941Z,2.63
2019-01-14T18:10:39.960Z,3.00
2019-01-14T18:13:03.670Z,2.47
2019-01-14T18:15:30.931Z,2.67
2019-01-14T18:17:58.195Z,2.63
2019-01-14T18:20:25.444Z,3.63
2019-01-14T18:22:52.716Z,1.77
2019-01-14T18:25:20.032Z,2.57
2019-01-14T18:27:47.390Z,2.37
2019-01-14T18:30:16.856Z,2.77
2019-01-14T18:32:44.120Z,2.60
2019-01-14T18:35:11.384Z,3.03
2019-01-14T18:37:38.666Z,3.53
2019-01-14T18:40:07.847Z,4.03
2019-01-14T18:42:35.167Z,3.20
2019-01-14T18:45:03.402Z,3.53
2019-01-14T18:47:30.662Z,3.30
2019-01-14T18:49:58.017Z,3.13
2019-01-14T18:52:25.291Z,2.13
2019-01-14T18:54:52.624Z,1.63
2019-01-14T18:57:19.920Z,3.60
2019-01-14T18:59:47.198Z,3.50
2019-01-14T19:02:14.473Z,2.83
2019-01-14T19:04:41.723Z,2.57
2019-01-14T19:07:08.999Z,3.90
2019-01-14T19:09:36.283Z,7.07
2019-01-14T19:12:03.565Z,3.20
2019-01-14T19:14:30.820Z,2.63
2019-01-14T19:16:58.058Z,2.63
2019-01-14T19:19:25.356Z,2.90
2019-01-14T19:21:52.595Z,2.77
2019-01-14T19:24:19.857Z,2.20
2019-01-14T19:26:47.128Z,2.73
2019-01-14T19:29:14.383Z,2.37
2019-01-14T19:31:41.620Z,2.60
2019-01-14T19:34:08.923Z,3.20
2019-01-14T19:36:36.212Z,5.87
2019-01-14T19:39:07.935Z,5.20
2019-01-14T19:41:35.248Z,5.30
2019-01-14T19:44:14.628Z,5.10
2019-01-14T19:46:42.007Z,4.57
2019-01-14T19:49:09.366Z,4.87
2019-01-14T19:51:36.729Z,4.60
2019-01-14T19:54:05.215Z,2.97
2019-01-14T19:56:32.562Z,2.37
2019-01-14T19:58:59.911Z,4.23
2019-01-14T20:01:27.187Z,3.90
2019-01-14T20:03:54.631Z,2.80
2019-01-14T20:06:21.947Z,2.93
2019-01-14T20:08:49.288Z,2.30
2019-01-14T20:11:16.617Z,2.60
2019-01-14T20:13:43.881Z,2.00
2019-01-14T20:16:11.198Z,1.40
2019-01-14T20:18:38.527Z,1.37
2019-01-14T20:21:05.776Z,1.80
2019-01-14T20:23:33.017Z,1.50
2019-01-14T20:26:00.264Z,1.77
2019-01-14T20:28:27.526Z,1.87
2019-01-14T20:30:54.795Z,1.73
2019-01-14T20:33:22.019Z,1.57
2019-01-14T20:35:49.401Z,1.50
2019-01-14T20:38:16.663Z,1.53
2019-01-14T20:40:52.044Z,2.43
2019-01-14T20:43:19.287Z,2.23
2019-01-14T20:45:46.511Z,1.60
2019-01-14T20:48:13.776Z,1.80
2019-01-14T20:50:41.079Z,1.90
2019-01-14T20:53:13.616Z,1.97
2019-01-14T20:55:37.491Z,2.70
2019-01-14T20:58:04.770Z,2.63
2019-01-14T21:00:32.025Z,2.30
2019-01-14T21:02:59.315Z,2.20
2019-01-14T21:05:26.823Z,2.80
2019-01-14T21:07:54.220Z,2.83
2019-01-14T21:10:21.633Z,2.87
2019-01-14T21:12:48.992Z,2.27
2019-01-14T21:15:16.489Z,3.53
2019-01-14T21:17:43.831Z,3.30
2019-01-14T21:20:19.896Z,3.00
2019-01-14T21:22:47.597Z,3.57
2019-01-14T21:25:14.967Z,2.77
2019-01-14T21:27:42.382Z,3.10
2019-01-14T21:30:12.911Z,2.50
2019-01-14T21:32:40.280Z,2.83
2019-01-14T21:35:07.817Z,2.97
2019-01-14T21:37:35.196Z,2.57
2019-01-14T21:40:03.319Z,3.33
2019-01-14T21:42:30.659Z,2.77
2019-01-14T21:44:58.015Z,2.93
2019-01-14T21:47:32.499Z,2.43
2019-01-14T21:49:54.782Z,3.27
2019-01-14T21:52:22.168Z,2.70
2019-01-14T21:54:49.523Z,3.73
2019-01-14T21:57:17.021Z,3.23
2019-01-14T21:59:44.506Z,2.97
2019-01-14T22:02:12.194Z,3.53
2019-01-14T22:04:39.566Z,4.43
2019-01-14T22:07:06.919Z,4.10
2019-01-14T22:09:34.376Z,4.37
2019-01-14T22:12:01.808Z,3.50
2019-01-14T22:14:29.169Z,3.57
2019-01-14T22:16:56.521Z,4.47
2019-01-14T22:19:24.064Z,3.10
2019-01-14T22:21:51.425Z,3.43
2019-01-14T22:24:18.832Z,4.73
2019-01-14T22:26:46.297Z,3.70
2019-01-14T22:29:13.652Z,3.47
2019-01-14T22:31:41.152Z,2.67
2019-01-14T22:34:08.524Z,2.50
2019-01-14T22:36:35.856Z,3.40
2019-01-14T22:39:06.659Z,2.13
2019-01-14T22:41:34.186Z,2.37
2019-01-14T22:44:07.663Z,1.90
2019-01-14T22:46:35.157Z,2.43
2019-01-14T22:49:02.495Z,2.17
2019-01-14T22:51:29.786Z,1.90
2019-01-14T22:54:02.935Z,2.10
2019-01-14T22:56:30.188Z,2.03
2019-01-14T22:58:57.441Z,2.00
2019-01-14T23:01:32.052Z,1.47
2019-01-14T23:03:59.977Z,1.60
2019-01-14T23:06:27.484Z,2.13
2019-01-14T23:08:54.745Z,1.83
2019-01-14T23:11:21.995Z,1.57
2019-01-14T23:13:49.248Z,1.70
2019-01-14T23:16:16.617Z,1.80
2019-01-14T23:18:43.886Z,1.80
2019-01-14T23:21:11.135Z,1.60
2019-01-14T23:23:38.395Z,2.00
2019-01-14T23:26:05.640Z,1.83
2019-01-14T23:28:32.879Z,2.30
2019-01-14T23:31:00.147Z,2.17
2019-01-14T23:33:27.423Z,2.13
2019-01-14T23:35:54.735Z,1.63
2019-01-14T23:38:21.984Z,1.93
2019-01-14T23:40:49.231Z,1.97
2019-01-14T23:43:16.480Z,1.83
2019-01-14T23:45:43.752Z,1.97
2019-01-14T23:48:11.239Z,2.30
2019-01-14T23:50:38.504Z,1.47
2019-01-14T23:53:05.790Z,2.27
2019-01-14T23:55:33.033Z,2.50
2019-01-14T23:58:00.289Z,2.43
